sensor_id;sensor_type;location;lat;lon;timestamp;P1;durP1;ratioP1;P2;durP2;ratioP2
9976;SDS011;5029;47.378;11.776;2023-03-04T00:00:48;29.60;;;22.93;;
9976;SDS011;5029;47.378;11.776;2023-03-04T00:05:51;29.57;;;24.17;;
9976;SDS011;5029;47.378;11.776;2023-03-04T00:10:55;30.33;;;23.23;;
9976;SDS011;5029;47.378;11.776;2023-03-04T00:15:59;30.33;;;24.27;;
9976;SDS011;5029;47.378;11.776;2023-03-04T00:21:03;27.87;;;22.97;;
9976;SDS011;5029;47.378;11.776;2023-03-04T00:26:06;26.97;;;22.23;;
9976;SDS011;5029;47.378;11.776;2023-03-04T00:31:11;28.00;;;23.03;;
9976;SDS011;5029;47.378;11.776;2023-03-04T00:36:15;29.70;;;21.50;;
9976;SDS011;5029;47.378;11.776;2023-03-04T00:41:18;26.37;;;21.63;;
9976;SDS011;5029;47.378;11.776;2023-03-04T00:46:23;27.77;;;23.33;;
9976;SDS011;5029;47.378;11.776;2023-03-04T00:51:26;29.80;;;23.23;;
9976;SDS011;5029;47.378;11.776;2023-03-04T00:56:29;26.27;;;21.27;;
9976;SDS011;5029;47.378;11.776;2023-03-04T01:01:34;28.80;;;21.93;;
9976;SDS011;5029;47.378;11.776;2023-03-04T01:06:37;27.30;;;22.57;;
9976;SDS011;5029;47.378;11.776;2023-03-04T01:11:41;28.23;;;23.17;;
9976;SDS011;5029;47.378;11.776;2023-03-04T01:16:45;29.20;;;24.20;;
9976;SDS011;5029;47.378;11.776;2023-03-04T01:21:49;30.67;;;23.33;;
9976;SDS011;5029;47.378;11.776;2023-03-04T01:26:53;29.03;;;23.07;;
9976;SDS011;5029;47.378;11.776;2023-03-04T01:31:57;27.90;;;22.23;;
9976;SDS011;5029;47.378;11.776;2023-03-04T01:37:01;28.27;;;23.17;;
9976;SDS011;5029;47.378;11.776;2023-03-04T01:42:04;30.20;;;21.83;;
9976;SDS011;5029;47.378;11.776;2023-03-04T01:47:09;27.03;;;21.73;;
9976;SDS011;5029;47.378;11.776;2023-03-04T01:52:13;27.60;;;22.40;;
9976;SDS011;5029;47.378;11.776;2023-03-04T01:57:16;31.00;;;23.03;;
9976;SDS011;5029;47.378;11.776;2023-03-04T02:02:22;25.93;;;22.13;;
9976;SDS011;5029;47.378;11.776;2023-03-04T02:07:26;30.30;;;23.13;;
9976;SDS011;5029;47.378;11.776;2023-03-04T02:12:29;25.47;;;20.57;;
9976;SDS011;5029;47.378;11.776;2023-03-04T02:17:34;29.60;;;21.63;;
9976;SDS011;5029;47.378;11.776;2023-03-04T02:22:39;25.53;;;20.33;;
9976;SDS011;5029;47.378;11.776;2023-03-04T02:27:49;25.40;;;20.67;;
9976;SDS011;5029;47.378;11.776;2023-03-04T02:32:53;23.60;;;19.30;;
9976;SDS011;5029;47.378;11.776;2023-03-04T02:37:56;23.03;;;18.10;;
9976;SDS011;5029;47.378;11.776;2023-03-04T02:43:01;21.27;;;17.90;;
9976;SDS011;5029;47.378;11.776;2023-03-04T02:48:04;26.10;;;18.93;;
9976;SDS011;5029;47.378;11.776;2023-03-04T02:53:08;21.70;;;16.97;;
9976;SDS011;5029;47.378;11.776;2023-03-04T02:58:13;20.77;;;17.13;;
9976;SDS011;5029;47.378;11.776;2023-03-04T03:03:17;22.20;;;18.03;;
9976;SDS011;5029;47.378;11.776;2023-03-04T03:08:20;20.50;;;16.53;;
9976;SDS011;5029;47.378;11.776;2023-03-04T03:13:26;23.27;;;16.27;;
9976;SDS011;5029;47.378;11.776;2023-03-04T03:18:29;17.07;;;13.93;;
9976;SDS011;5029;47.378;11.776;2023-03-04T03:23:33;15.47;;;12.77;;
9976;SDS011;5029;47.378;11.776;2023-03-04T03:28:38;16.73;;;11.63;;
9976;SDS011;5029;47.378;11.776;2023-03-04T03:33:41;15.87;;;10.77;;
9976;SDS011;5029;47.378;11.776;2023-03-04T03:38:44;11.70;;;10.23;;
9976;SDS011;5029;47.378;11.776;2023-03-04T03:43:49;12.30;;;9.63;;
9976;SDS011;5029;47.378;11.776;2023-03-04T03:48:52;15.87;;;10.70;;
9976;SDS011;5029;47.378;11.776;2023-03-04T03:53:55;14.90;;;11.33;;
9976;SDS011;5029;47.378;11.776;2023-03-04T03:59:00;14.30;;;11.20;;
9976;SDS011;5029;47.378;11.776;2023-03-04T04:04:04;15.97;;;11.13;;
9976;SDS011;5029;47.378;11.776;2023-03-04T04:09:07;15.23;;;12.47;;
9976;SDS011;5029;47.378;11.776;2023-03-04T04:14:12;14.03;;;10.97;;
9976;SDS011;5029;47.378;11.776;2023-03-04T04:19:16;17.00;;;13.17;;
9976;SDS011;5029;47.378;11.776;2023-03-04T04:24:20;16.87;;;13.30;;
9976;SDS011;5029;47.378;11.776;2023-03-04T04:29:25;16.10;;;13.17;;
9976;SDS011;5029;47.378;11.776;2023-03-04T04:34:28;18.73;;;15.30;;
9976;SDS011;5029;47.378;11.776;2023-03-04T04:39:32;21.03;;;14.90;;
9976;SDS011;5029;47.378;11.776;2023-03-04T04:44:36;18.80;;;15.13;;
9976;SDS011;5029;47.378;11.776;2023-03-04T04:49:40;17.67;;;14.53;;
9976;SDS011;5029;47.378;11.776;2023-03-04T04:54:43;18.57;;;14.73;;
9976;SDS011;5029;47.378;11.776;2023-03-04T04:59:48;18.70;;;13.97;;
9976;SDS011;5029;47.378;11.776;2023-03-04T05:04:51;19.63;;;14.50;;
9976;SDS011;5029;47.378;11.776;2023-03-04T05:09:54;18.67;;;14.47;;
9976;SDS011;5029;47.378;11.776;2023-03-04T05:14:59;18.83;;;13.90;;
9976;SDS011;5029;47.378;11.776;2023-03-04T05:20:03;15.43;;;12.70;;
9976;SDS011;5029;47.378;11.776;2023-03-04T05:25:07;16.63;;;12.00;;
9976;SDS011;5029;47.378;11.776;2023-03-04T05:30:13;15.67;;;11.53;;
9976;SDS011;5029;47.378;11.776;2023-03-04T05:35:16;16.97;;;12.20;;
9976;SDS011;5029;47.378;11.776;2023-03-04T05:40:20;17.53;;;12.43;;
9976;SDS011;5029;47.378;11.776;2023-03-04T05:45:26;14.77;;;12.70;;
9976;SDS011;5029;47.378;11.776;2023-03-04T05:50:29;15.43;;;11.13;;
9976;SDS011;5029;47.378;11.776;2023-03-04T05:55:33;14.23;;;11.30;;
9976;SDS011;5029;47.378;11.776;2023-03-04T06:00:38;15.00;;;10.77;;
9976;SDS011;5029;47.378;11.776;2023-03-04T06:05:41;14.37;;;11.53;;
9976;SDS011;5029;47.378;11.776;2023-03-04T06:10:45;18.60;;;13.97;;
9976;SDS011;5029;47.378;11.776;2023-03-04T06:15:53;19.13;;;13.70;;
9976;SDS011;5029;47.378;11.776;2023-03-04T06:20:57;16.57;;;13.73;;
9976;SDS011;5029;47.378;11.776;2023-03-04T06:26:02;17.43;;;12.73;;
9976;SDS011;5029;47.378;11.776;2023-03-04T06:31:11;17.27;;;11.47;;
9976;SDS011;5029;47.378;11.776;2023-03-04T06:36:14;15.57;;;11.93;;
9976;SDS011;5029;47.378;11.776;2023-03-04T06:41:18;14.20;;;10.93;;
9976;SDS011;5029;47.378;11.776;2023-03-04T06:46:22;15.23;;;10.83;;
9976;SDS011;5029;47.378;11.776;2023-03-04T06:51:29;14.73;;;10.97;;
9976;SDS011;5029;47.378;11.776;2023-03-04T06:56:32;12.93;;;10.47;;
9976;SDS011;5029;47.378;11.776;2023-03-04T07:01:37;13.93;;;11.17;;
9976;SDS011;5029;47.378;11.776;2023-03-04T07:06:40;12.50;;;10.87;;
9976;SDS011;5029;47.378;11.776;2023-03-04T07:11:43;13.77;;;11.13;;
9976;SDS011;5029;47.378;11.776;2023-03-04T07:16:49;12.87;;;10.33;;
9976;SDS011;5029;47.378;11.776;2023-03-04T07:21:52;17.30;;;12.57;;
9976;SDS011;5029;47.378;11.776;2023-03-04T07:26:56;22.47;;;16.03;;
9976;SDS011;5029;47.378;11.776;2023-03-04T07:32:00;19.60;;;15.40;;
9976;SDS011;5029;47.378;11.776;2023-03-04T07:37:04;17.90;;;14.13;;
9976;SDS011;5029;47.378;11.776;2023-03-04T07:42:07;16.70;;;13.30;;
9976;SDS011;5029;47.378;11.776;2023-03-04T07:47:11;16.63;;;13.07;;
9976;SDS011;5029;47.378;11.776;2023-03-04T07:52:15;17.37;;;13.67;;
9976;SDS011;5029;47.378;11.776;2023-03-04T07:57:18;18.07;;;13.47;;
9976;SDS011;5029;47.378;11.776;2023-03-04T08:02:23;16.83;;;13.37;;
9976;SDS011;5029;47.378;11.776;2023-03-04T08:07:26;17.60;;;12.97;;
9976;SDS011;5029;47.378;11.776;2023-03-04T08:12:29;16.47;;;13.10;;
9976;SDS011;5029;47.378;11.776;2023-03-04T08:17:35;17.27;;;13.87;;
9976;SDS011;5029;47.378;11.776;2023-03-04T08:22:39;16.27;;;13.23;;
9976;SDS011;5029;47.378;11.776;2023-03-04T08:27:42;17.17;;;14.20;;
9976;SDS011;5029;47.378;11.776;2023-03-04T08:32:47;17.63;;;13.77;;
9976;SDS011;5029;47.378;11.776;2023-03-04T08:37:50;15.07;;;11.97;;
9976;SDS011;5029;47.378;11.776;2023-03-04T08:42:54;15.13;;;11.53;;
9976;SDS011;5029;47.378;11.776;2023-03-04T08:47:58;12.00;;;10.00;;
9976;SDS011;5029;47.378;11.776;2023-03-04T08:53:01;15.17;;;10.70;;
9976;SDS011;5029;47.378;11.776;2023-03-04T08:58:05;10.13;;;7.67;;
9976;SDS011;5029;47.378;11.776;2023-03-04T09:03:11;14.33;;;11.37;;
9976;SDS011;5029;47.378;11.776;2023-03-04T09:08:15;15.50;;;12.03;;
9976;SDS011;5029;47.378;11.776;2023-03-04T09:13:19;17.07;;;12.93;;
9976;SDS011;5029;47.378;11.776;2023-03-04T09:18:28;17.47;;;12.10;;
9976;SDS011;5029;47.378;11.776;2023-03-04T09:23:31;16.70;;;12.13;;
9976;SDS011;5029;47.378;11.776;2023-03-04T09:28:35;14.83;;;11.63;;
9976;SDS011;5029;47.378;11.776;2023-03-04T09:33:40;15.23;;;10.60;;
9976;SDS011;5029;47.378;11.776;2023-03-04T09:38:44;14.83;;;11.43;;
9976;SDS011;5029;47.378;11.776;2023-03-04T09:43:48;10.87;;;9.40;;
9976;SDS011;5029;47.378;11.776;2023-03-04T09:48:54;11.87;;;10.63;;
9976;SDS011;5029;47.378;11.776;2023-03-04T09:54:02;16.07;;;11.77;;
9976;SDS011;5029;47.378;11.776;2023-03-04T09:59:12;16.70;;;11.93;;
9976;SDS011;5029;47.378;11.776;2023-03-04T10:04:21;15.37;;;12.23;;
9976;SDS011;5029;47.378;11.776;2023-03-04T10:09:40;14.93;;;12.97;;
9976;SDS011;5029;47.378;11.776;2023-03-04T10:14:48;15.77;;;12.60;;
9976;SDS011;5029;47.378;11.776;2023-03-04T10:20:00;14.13;;;11.20;;
9976;SDS011;5029;47.378;11.776;2023-03-04T10:25:15;15.03;;;11.43;;
9976;SDS011;5029;47.378;11.776;2023-03-04T10:30:23;13.07;;;10.90;;
9976;SDS011;5029;47.378;11.776;2023-03-04T10:35:35;13.40;;;10.47;;
9976;SDS011;5029;47.378;11.776;2023-03-04T10:40:40;12.33;;;9.67;;
9976;SDS011;5029;47.378;11.776;2023-03-04T10:45:46;11.10;;;9.00;;
9976;SDS011;5029;47.378;11.776;2023-03-04T10:50:52;10.63;;;8.77;;
9976;SDS011;5029;47.378;11.776;2023-03-04T10:55:56;12.33;;;7.90;;
9976;SDS011;5029;47.378;11.776;2023-03-04T11:01:00;13.10;;;7.27;;
9976;SDS011;5029;47.378;11.776;2023-03-04T11:06:17;9.20;;;6.53;;
9976;SDS011;5029;47.378;11.776;2023-03-04T11:11:22;12.63;;;7.57;;
9976;SDS011;5029;47.378;11.776;2023-03-04T11:16:30;10.40;;;7.93;;
9976;SDS011;5029;47.378;11.776;2023-03-04T11:21:37;11.67;;;8.07;;
9976;SDS011;5029;47.378;11.776;2023-03-04T11:26:44;10.60;;;8.80;;
9976;SDS011;5029;47.378;11.776;2023-03-04T11:31:50;10.40;;;9.30;;
9976;SDS011;5029;47.378;11.776;2023-03-04T11:37:02;9.17;;;5.60;;
9976;SDS011;5029;47.378;11.776;2023-03-04T11:42:15;4.90;;;4.40;;
9976;SDS011;5029;47.378;11.776;2023-03-04T11:47:31;10.27;;;7.70;;
9976;SDS011;5029;47.378;11.776;2023-03-04T11:52:57;10.60;;;7.30;;
9976;SDS011;5029;47.378;11.776;2023-03-04T11:58:21;10.40;;;7.63;;
9976;SDS011;5029;47.378;11.776;2023-03-04T12:03:43;11.17;;;8.57;;
9976;SDS011;5029;47.378;11.776;2023-03-04T12:09:09;10.10;;;8.47;;
9976;SDS011;5029;47.378;11.776;2023-03-04T12:14:27;9.73;;;7.83;;
9976;SDS011;5029;47.378;11.776;2023-03-04T12:19:39;10.13;;;8.00;;
9976;SDS011;5029;47.378;11.776;2023-03-04T12:25:04;10.07;;;7.87;;
9976;SDS011;5029;47.378;11.776;2023-03-04T12:30:22;9.40;;;7.33;;
9976;SDS011;5029;47.378;11.776;2023-03-04T12:35:44;11.67;;;6.87;;
9976;SDS011;5029;47.378;11.776;2023-03-04T12:40:56;9.57;;;6.80;;
9976;SDS011;5029;47.378;11.776;2023-03-04T12:46:11;9.97;;;6.53;;
9976;SDS011;5029;47.378;11.776;2023-03-04T12:51:28;9.67;;;5.87;;
9976;SDS011;5029;47.378;11.776;2023-03-04T12:56:37;10.23;;;6.40;;
9976;SDS011;5029;47.378;11.776;2023-03-04T13:01:45;6.83;;;5.30;;
9976;SDS011;5029;47.378;11.776;2023-03-04T13:06:59;10.50;;;6.87;;
9976;SDS011;5029;47.378;11.776;2023-03-04T13:12:16;12.40;;;8.07;;
9976;SDS011;5029;47.378;11.776;2023-03-04T13:17:39;10.93;;;8.27;;
9976;SDS011;5029;47.378;11.776;2023-03-04T13:22:45;14.43;;;8.93;;
9976;SDS011;5029;47.378;11.776;2023-03-04T13:28:05;10.03;;;8.57;;
9976;SDS011;5029;47.378;11.776;2023-03-04T13:33:43;14.67;;;8.47;;
9976;SDS011;5029;47.378;11.776;2023-03-04T13:38:56;10.87;;;8.80;;
9976;SDS011;5029;47.378;11.776;2023-03-04T13:44:03;9.77;;;8.53;;
9976;SDS011;5029;47.378;11.776;2023-03-04T13:49:33;10.50;;;8.80;;
9976;SDS011;5029;47.378;11.776;2023-03-04T13:54:37;13.60;;;9.00;;
9976;SDS011;5029;47.378;11.776;2023-03-04T13:59:43;12.10;;;9.40;;
9976;SDS011;5029;47.378;11.776;2023-03-04T14:04:55;11.47;;;9.63;;
9976;SDS011;5029;47.378;11.776;2023-03-04T14:10:00;12.53;;;10.37;;
9976;SDS011;5029;47.378;11.776;2023-03-04T14:15:14;14.53;;;11.13;;
9976;SDS011;5029;47.378;11.776;2023-03-04T14:20:24;14.13;;;9.83;;
9976;SDS011;5029;47.378;11.776;2023-03-04T14:25:29;15.70;;;11.20;;
9976;SDS011;5029;47.378;11.776;2023-03-04T14:30:38;11.97;;;10.43;;
9976;SDS011;5029;47.378;11.776;2023-03-04T14:35:45;12.53;;;9.87;;
9976;SDS011;5029;47.378;11.776;2023-03-04T14:40:51;13.00;;;11.27;;
9976;SDS011;5029;47.378;11.776;2023-03-04T14:45:59;13.43;;;10.20;;
9976;SDS011;5029;47.378;11.776;2023-03-04T14:51:04;14.10;;;11.70;;
9976;SDS011;5029;47.378;11.776;2023-03-04T14:56:08;14.17;;;11.60;;
9976;SDS011;5029;47.378;11.776;2023-03-04T15:01:15;13.57;;;12.17;;
9976;SDS011;5029;47.378;11.776;2023-03-04T15:06:22;16.07;;;12.87;;
9976;SDS011;5029;47.378;11.776;2023-03-04T15:11:29;14.80;;;13.07;;
9976;SDS011;5029;47.378;11.776;2023-03-04T15:22:04;16.53;;;13.20;;
9976;SDS011;5029;47.378;11.776;2023-03-04T15:27:09;16.27;;;13.73;;
9976;SDS011;5029;47.378;11.776;2023-03-04T15:32:15;16.13;;;14.17;;
9976;SDS011;5029;47.378;11.776;2023-03-04T15:37:19;16.80;;;14.27;;
9976;SDS011;5029;47.378;11.776;2023-03-04T15:42:25;17.27;;;13.63;;
9976;SDS011;5029;47.378;11.776;2023-03-04T15:47:30;16.17;;;14.30;;
9976;SDS011;5029;47.378;11.776;2023-03-04T15:52:39;18.60;;;14.97;;
9976;SDS011;5029;47.378;11.776;2023-03-04T15:57:43;21.67;;;16.87;;
9976;SDS011;5029;47.378;11.776;2023-03-04T16:02:51;21.10;;;16.40;;
9976;SDS011;5029;47.378;11.776;2023-03-04T16:07:55;19.10;;;15.33;;
9976;SDS011;5029;47.378;11.776;2023-03-04T16:13:00;17.47;;;14.97;;
9976;SDS011;5029;47.378;11.776;2023-03-04T16:18:07;17.07;;;15.17;;
9976;SDS011;5029;47.378;11.776;2023-03-04T16:23:13;16.77;;;14.63;;
9976;SDS011;5029;47.378;11.776;2023-03-04T16:28:22;17.67;;;15.70;;
9976;SDS011;5029;47.378;11.776;2023-03-04T16:33:26;21.27;;;15.97;;
9976;SDS011;5029;47.378;11.776;2023-03-04T16:38:50;18.93;;;16.47;;
9976;SDS011;5029;47.378;11.776;2023-03-04T16:43:58;20.77;;;16.67;;
9976;SDS011;5029;47.378;11.776;2023-03-04T16:49:03;19.40;;;16.93;;
9976;SDS011;5029;47.378;11.776;2023-03-04T16:54:09;17.80;;;15.87;;
9976;SDS011;5029;47.378;11.776;2023-03-04T16:59:17;20.87;;;16.60;;
9976;SDS011;5029;47.378;11.776;2023-03-04T17:04:22;20.13;;;17.10;;
9976;SDS011;5029;47.378;11.776;2023-03-04T17:09:26;19.37;;;16.27;;
9976;SDS011;5029;47.378;11.776;2023-03-04T17:14:30;18.60;;;15.53;;
9976;SDS011;5029;47.378;11.776;2023-03-04T17:19:35;20.10;;;16.63;;
9976;SDS011;5029;47.378;11.776;2023-03-04T17:24:40;21.53;;;16.80;;
9976;SDS011;5029;47.378;11.776;2023-03-04T17:29:44;19.20;;;15.73;;
9976;SDS011;5029;47.378;11.776;2023-03-04T17:34:55;23.07;;;17.53;;
9976;SDS011;5029;47.378;11.776;2023-03-04T17:40:01;21.57;;;16.80;;
9976;SDS011;5029;47.378;11.776;2023-03-04T17:45:07;21.33;;;17.17;;
9976;SDS011;5029;47.378;11.776;2023-03-04T17:50:13;21.93;;;16.30;;
9976;SDS011;5029;47.378;11.776;2023-03-04T17:55:18;19.57;;;16.13;;
9976;SDS011;5029;47.378;11.776;2023-03-04T18:00:22;21.37;;;16.73;;
9976;SDS011;5029;47.378;11.776;2023-03-04T18:05:28;20.30;;;17.03;;
9976;SDS011;5029;47.378;11.776;2023-03-04T18:10:33;23.03;;;17.63;;
9976;SDS011;5029;47.378;11.776;2023-03-04T18:15:38;18.70;;;15.53;;
9976;SDS011;5029;47.378;11.776;2023-03-04T18:20:44;22.13;;;16.60;;
9976;SDS011;5029;47.378;11.776;2023-03-04T18:25:49;20.97;;;15.83;;
9976;SDS011;5029;47.378;11.776;2023-03-04T18:30:53;18.70;;;15.67;;
9976;SDS011;5029;47.378;11.776;2023-03-04T18:36:03;19.73;;;16.77;;
9976;SDS011;5029;47.378;11.776;2023-03-04T18:41:10;21.53;;;16.90;;
9976;SDS011;5029;47.378;11.776;2023-03-04T18:46:21;21.50;;;16.40;;
9976;SDS011;5029;47.378;11.776;2023-03-04T18:51:33;22.07;;;16.40;;
9976;SDS011;5029;47.378;11.776;2023-03-04T18:56:38;20.10;;;17.37;;
9976;SDS011;5029;47.378;11.776;2023-03-04T19:01:46;20.93;;;16.73;;
9976;SDS011;5029;47.378;11.776;2023-03-04T19:06:54;21.70;;;16.43;;
9976;SDS011;5029;47.378;11.776;2023-03-04T19:12:01;20.93;;;16.83;;
9976;SDS011;5029;47.378;11.776;2023-03-04T19:17:08;20.00;;;16.00;;
9976;SDS011;5029;47.378;11.776;2023-03-04T19:22:19;21.30;;;15.70;;
9976;SDS011;5029;47.378;11.776;2023-03-04T19:27:24;22.90;;;17.63;;
9976;SDS011;5029;47.378;11.776;2023-03-04T19:32:30;22.83;;;16.30;;
9976;SDS011;5029;47.378;11.776;2023-03-04T19:37:37;22.80;;;16.23;;
9976;SDS011;5029;47.378;11.776;2023-03-04T19:42:42;21.53;;;17.07;;
9976;SDS011;5029;47.378;11.776;2023-03-04T19:47:48;18.07;;;15.40;;
9976;SDS011;5029;47.378;11.776;2023-03-04T19:52:55;18.23;;;14.77;;
9976;SDS011;5029;47.378;11.776;2023-03-04T19:57:59;20.33;;;15.63;;
9976;SDS011;5029;47.378;11.776;2023-03-04T20:03:05;17.93;;;13.93;;
9976;SDS011;5029;47.378;11.776;2023-03-04T20:08:11;16.70;;;12.20;;
9976;SDS011;5029;47.378;11.776;2023-03-04T20:13:17;20.97;;;13.83;;
9976;SDS011;5029;47.378;11.776;2023-03-04T20:18:23;17.17;;;14.37;;
9976;SDS011;5029;47.378;11.776;2023-03-04T20:23:29;17.17;;;12.60;;
9976;SDS011;5029;47.378;11.776;2023-03-04T20:28:34;15.80;;;12.37;;
9976;SDS011;5029;47.378;11.776;2023-03-04T20:33:38;18.57;;;13.20;;
9976;SDS011;5029;47.378;11.776;2023-03-04T20:38:45;15.93;;;12.07;;
9976;SDS011;5029;47.378;11.776;2023-03-04T20:44:02;16.33;;;12.73;;
9976;SDS011;5029;47.378;11.776;2023-03-04T20:49:10;18.10;;;13.27;;
9976;SDS011;5029;47.378;11.776;2023-03-04T20:54:17;18.00;;;13.40;;
9976;SDS011;5029;47.378;11.776;2023-03-04T20:59:21;16.23;;;13.20;;
9976;SDS011;5029;47.378;11.776;2023-03-04T21:04:26;17.47;;;14.03;;
9976;SDS011;5029;47.378;11.776;2023-03-04T21:09:34;17.80;;;14.30;;
9976;SDS011;5029;47.378;11.776;2023-03-04T21:14:38;18.50;;;13.37;;
9976;SDS011;5029;47.378;11.776;2023-03-04T21:19:42;18.83;;;14.30;;
9976;SDS011;5029;47.378;11.776;2023-03-04T21:24:48;12.07;;;8.27;;
9976;SDS011;5029;47.378;11.776;2023-03-04T21:29:53;17.47;;;12.97;;
9976;SDS011;5029;47.378;11.776;2023-03-04T21:34:57;20.60;;;13.90;;
9976;SDS011;5029;47.378;11.776;2023-03-04T21:40:04;16.20;;;11.90;;
9976;SDS011;5029;47.378;11.776;2023-03-04T21:45:09;17.10;;;13.03;;
9976;SDS011;5029;47.378;11.776;2023-03-04T21:50:14;16.97;;;13.90;;
9976;SDS011;5029;47.378;11.776;2023-03-04T21:55:22;19.40;;;14.47;;
9976;SDS011;5029;47.378;11.776;2023-03-04T22:00:26;16.67;;;14.33;;
9976;SDS011;5029;47.378;11.776;2023-03-04T22:05:31;18.40;;;13.80;;
9976;SDS011;5029;47.378;11.776;2023-03-04T22:10:37;18.80;;;14.10;;
9976;SDS011;5029;47.378;11.776;2023-03-04T22:15:43;17.87;;;14.17;;
9976;SDS011;5029;47.378;11.776;2023-03-04T22:20:48;16.67;;;13.67;;
9976;SDS011;5029;47.378;11.776;2023-03-04T22:25:55;18.67;;;14.97;;
9976;SDS011;5029;47.378;11.776;2023-03-04T22:31:07;18.17;;;14.40;;
9976;SDS011;5029;47.378;11.776;2023-03-04T22:36:15;19.47;;;14.03;;
9976;SDS011;5029;47.378;11.776;2023-03-04T22:41:20;19.50;;;14.80;;
9976;SDS011;5029;47.378;11.776;2023-03-04T22:46:25;17.53;;;14.17;;
9976;SDS011;5029;47.378;11.776;2023-03-04T22:51:30;19.70;;;14.13;;
9976;SDS011;5029;47.378;11.776;2023-03-04T22:56:35;19.87;;;14.37;;
9976;SDS011;5029;47.378;11.776;2023-03-04T23:01:39;17.27;;;14.20;;
9976;SDS011;5029;47.378;11.776;2023-03-04T23:06:43;18.23;;;14.93;;
9976;SDS011;5029;47.378;11.776;2023-03-04T23:11:47;18.20;;;15.23;;
9976;SDS011;5029;47.378;11.776;2023-03-04T23:16:51;20.93;;;14.50;;
9976;SDS011;5029;47.378;11.776;2023-03-04T23:21:54;17.67;;;14.37;;
9976;SDS011;5029;47.378;11.776;2023-03-04T23:26:59;19.47;;;13.77;;
9976;SDS011;5029;47.378;11.776;2023-03-04T23:32:02;18.33;;;13.97;;
9976;SDS011;5029;47.378;11.776;2023-03-04T23:37:27;21.43;;;15.50;;
9976;SDS011;5029;47.378;11.776;2023-03-04T23:42:32;22.73;;;16.33;;
9976;SDS011;5029;47.378;11.776;2023-03-04T23:47:35;20.20;;;15.87;;
9976;SDS011;5029;47.378;11.776;2023-03-04T23:52:38;17.80;;;12.67;;
9976;SDS011;5029;47.378;11.776;2023-03-04T23:57:43;20.00;;;15.87;;
